LRBS/BBU METAR and TAF weather

Enter ICAO airport designator
Station Type Date Time Source
LRBS METAR 2020/04/02 00:30 UTC NOAA

LRBS 020030Z 01004KT CAVOK 03/M05 Q1019 NOSIG


Station Type Date Time Source
LRBS Decoded METAR 2020/04/02 00:30 UTC NOAA

Bucuresti / Imh, Romania (LRBS) 44-30N 026-08E 91M
Apr 01, 2020 - 08:30 PM EDT / 2020.04.02 0030 UTC
Wind: from the N (010 degrees) at 5 MPH (4 KT):0
Visibility: greater than 7 mile(s):0
Temperature: 37 F (3 C)
Dew Point: 23 F (-5 C)
Relative Humidity: 55%
Pressure (altimeter): 30.09 in. Hg (1019 hPa)
ob: LRBS 020030Z 01004KT CAVOK 03/M05 Q1019 NOSIG
cycle: 0

Station Type Date Time Source
LRBS TAF 2020/04/01 18:33 UTC NOAA

TAF TAF LRBS 011700Z 0118/0218 09008KT CAVOK

Example: see airport list